Time;durP1;ratioP1;P1;durP2;ratioP2;P2;SDS_P1;SDS_P2;PMS_P1;PMS_P2;Temp;Humidity;BMP_temperature;BMP_pressure;BME280_temperature;BME280_humidity;BME280_pressure;Samples;Min_cycle;Max_cycle;Signal;HPM_P1;HPM_P2
2022/11/30 00:00:29;;;;;;;10.83;5.37;;;5.30;99.90;;;;;;4115234;28;20445;-70
2022/11/30 00:02:29;;;;;;;11.13;5.90;;;5.10;99.90;;;;;;4113689;28;20446;-70
2022/11/30 00:04:30;;;;;;;13.33;5.47;;;5.00;99.90;;;;;;4129557;28;20206;-69
2022/11/30 00:06:31;;;;;;;10.97;5.43;;;4.90;99.90;;;;;;4113968;28;20608;-69
2022/11/30 00:08:31;;;;;;;9.70;5.50;;;5.00;99.90;;;;;;4115023;28;20555;-69
2022/11/30 00:10:32;;;;;;;10.57;5.50;;;5.10;99.90;;;;;;4113770;28;20183;-69
2022/11/30 00:12:33;;;;;;;11.90;6.17;;;5.20;99.90;;;;;;4114719;28;20298;-70
2022/11/30 00:14:33;;;;;;;10.20;6.13;;;5.20;99.90;;;;;;4114764;28;20194;-69
2022/11/30 00:16:34;;;;;;;18.47;7.43;;;5.10;99.90;;;;;;4114892;28;20722;-70
2022/11/30 00:18:36;;;;;;;11.73;6.13;;;5.30;99.90;;;;;;4115100;28;20595;-70
2022/11/30 00:20:36;;;;;;;13.10;6.93;;;5.20;99.90;;;;;;4113550;28;20191;-69
2022/11/30 00:22:37;;;;;;;18.77;7.57;;;5.10;99.90;;;;;;4114179;28;21206;-70
2022/11/30 00:24:37;;;;;;;15.77;6.83;;;4.90;99.90;;;;;;4113230;28;20214;-69
2022/11/30 00:26:38;;;;;;;15.33;7.17;;;4.90;99.90;;;;;;4114656;28;20203;-69
2022/11/30 00:28:40;;;;;;;16.57;8.13;;;4.90;99.90;;;;;;4114642;28;20187;-70
2022/11/30 00:30:41;;;;;;;17.43;7.13;;;4.90;99.90;;;;;;4113394;28;20221;-70
2022/11/30 00:32:42;;;;;;;14.80;7.60;;;5.00;99.90;;;;;;4113875;28;20525;-70
2022/11/30 00:34:42;;;;;;;17.70;7.73;;;5.00;99.90;;;;;;4114686;28;20256;-70
2022/11/30 00:36:43;;;;;;;12.80;6.87;;;5.10;99.90;;;;;;4114858;28;20190;-70
2022/11/30 00:38:46;;;;;;;9.43;5.50;;;5.10;99.90;;;;;;4114798;28;20203;-69
2022/11/30 00:40:46;;;;;;;10.00;5.67;;;5.10;99.90;;;;;;4113242;28;20264;-69
2022/11/30 00:42:47;;;;;;;8.50;5.93;;;5.10;99.90;;;;;;4113878;28;20453;-69
2022/11/30 00:44:48;;;;;;;10.17;5.57;;;5.00;99.90;;;;;;4113129;28;20211;-69
2022/11/30 00:46:48;;;;;;;8.50;5.67;;;5.00;99.90;;;;;;4129422;28;20924;-70
2022/11/30 00:48:49;;;;;;;11.43;6.70;;;5.10;99.90;;;;;;4114735;28;20274;-70
2022/11/30 00:50:50;;;;;;;13.23;7.10;;;4.90;99.90;;;;;;4114222;28;20186;-70
2022/11/30 00:52:51;;;;;;;13.57;6.50;;;5.00;99.90;;;;;;4113556;28;20831;-70
2022/11/30 00:54:51;;;;;;;13.23;6.00;;;5.10;99.90;;;;;;4113104;28;20432;-70
2022/11/30 00:56:52;;;;;;;9.87;5.70;;;5.10;99.90;;;;;;4113568;28;20194;-69
2022/11/30 00:58:53;;;;;;;12.23;7.03;;;5.10;99.90;;;;;;4113207;28;20187;-70
2022/11/30 01:00:53;;;;;;;11.97;6.47;;;5.20;99.90;;;;;;4112795;28;20194;-70
2022/11/30 01:02:56;;;;;;;12.97;6.57;;;5.30;99.90;;;;;;4112090;28;20234;-70
2022/11/30 01:04:57;;;;;;;15.70;7.40;;;5.20;99.90;;;;;;4114208;28;20223;-70
2022/11/30 01:06:57;;;;;;;17.30;8.73;;;5.30;99.90;;;;;;4114349;28;20646;-70
2022/11/30 01:08:58;;;;;;;14.40;7.73;;;5.20;99.90;;;;;;4112927;28;20221;-70
2022/11/30 01:11:11;;;;;;;16.77;8.23;;;5.10;99.90;;;;;;4114266;28;20197;-70
2022/11/30 01:13:12;;;;;;;19.53;9.90;;;5.10;99.90;;;;;;4112209;28;20196;-70
2022/11/30 01:15:13;;;;;;;15.10;7.67;;;5.30;99.90;;;;;;4114413;28;20451;-72
2022/11/30 01:17:13;;;;;;;11.90;7.07;;;5.20;99.90;;;;;;4112949;28;20201;-70
2022/11/30 01:19:14;;;;;;;12.17;5.90;;;5.30;99.90;;;;;;4112744;28;20188;-70
2022/11/30 01:21:20;;;;;;;8.13;4.77;;;5.30;99.90;;;;;;4113946;28;20239;-70
2022/11/30 01:23:21;;;;;;;9.73;5.37;;;5.10;99.90;;;;;;4113625;28;20179;-70
2022/11/30 01:25:22;;;;;;;9.17;5.67;;;5.20;99.90;;;;;;4114473;28;20474;-70
2022/11/30 01:27:22;;;;;;;10.33;6.23;;;5.30;99.90;;;;;;4113091;28;20195;-70
2022/11/30 01:29:23;;;;;;;13.63;6.33;;;5.10;99.90;;;;;;4113846;28;20179;-70
2022/11/30 01:31:24;;;;;;;12.00;5.73;;;5.00;99.90;;;;;;4112598;28;20187;-70
2022/11/30 01:33:25;;;;;;;9.20;5.50;;;4.90;99.90;;;;;;4128176;28;20194;-70
2022/11/30 01:35:25;;;;;;;8.00;5.40;;;5.00;99.90;;;;;;4112615;28;20242;-70
2022/11/30 01:37:28;;;;;;;13.27;5.77;;;5.00;99.90;;;;;;4113809;28;20559;-70
2022/11/30 01:39:29;;;;;;;13.47;6.60;;;4.90;99.90;;;;;;4113655;28;20183;-71
2022/11/30 01:41:31;;;;;;;11.50;6.00;;;4.70;99.90;;;;;;4112575;28;20434;-70
2022/11/30 01:43:44;;;;;;;11.07;5.83;;;4.70;99.90;;;;;;4127686;28;20205;-69
2022/11/30 01:45:48;;;;;;;10.80;5.57;;;4.80;99.90;;;;;;4099716;28;20446;-70
2022/11/30 01:47:53;;;;;;;10.40;5.93;;;4.80;99.90;;;;;;4112368;28;20529;-70
2022/11/30 01:50:01;;;;;;;8.77;5.17;;;4.80;99.90;;;;;;4113478;28;20438;-70
2022/11/30 01:52:12;;;;;;;8.80;5.47;;;4.80;99.90;;;;;;4112326;28;20416;-70
2022/11/30 01:54:17;;;;;;;9.90;5.50;;;4.90;99.90;;;;;;4112005;28;20998;-70
2022/11/30 01:56:18;;;;;;;6.43;4.13;;;4.90;99.90;;;;;;4112197;28;21424;-70
2022/11/30 01:58:26;;;;;;;9.87;4.70;;;4.90;99.90;;;;;;4127638;28;20449;-69
2022/11/30 02:00:27;;;;;;;8.10;4.43;;;5.10;99.90;;;;;;4106075;28;20198;-71
2022/11/30 02:02:43;;;;;;;6.60;4.23;;;5.20;99.90;;;;;;4128547;28;20455;-70
2022/11/30 02:04:43;;;;;;;7.43;4.73;;;5.20;99.90;;;;;;4112766;28;20211;-70
2022/11/30 02:06:45;;;;;;;8.63;4.90;;;5.10;99.90;;;;;;4112446;28;20919;-70
2022/11/30 02:08:46;;;;;;;8.97;4.60;;;5.20;99.90;;;;;;4118973;28;20662;-69
2022/11/30 02:10:54;;;;;;;7.90;4.87;;;5.20;99.90;;;;;;4118053;28;20437;-70
2022/11/30 02:13:39;;;;;;;10.30;5.00;;;5.20;99.90;;;;;;4118566;28;20209;-70
2022/11/30 02:16:06;;;;;;;5.87;3.73;;;5.20;99.90;;;;;;4119296;28;20556;-70
2022/11/30 02:18:14;;;;;;;6.83;4.13;;;5.10;99.90;;;;;;4118978;28;20407;-70
2022/11/30 02:20:37;;;;;;;7.10;4.53;;;5.10;99.90;;;;;;4117696;28;20489;-70
2022/11/30 02:23:01;;;;;;;7.07;4.30;;;5.10;99.90;;;;;;4117151;28;20418;-70
2022/11/30 02:25:50;;;;;;;6.43;4.03;;;5.20;99.90;;;;;;4117666;28;20481;-69
2022/11/30 02:28:39;;;;;;;6.93;3.97;;;5.20;99.90;;;;;;4127997;28;20941;-70
2022/11/30 02:30:46;;;;;;;7.43;4.10;;;4.90;99.90;;;;;;4117712;28;21208;-70
2022/11/30 02:33:08;;;;;;;8.13;4.83;;;5.00;99.90;;;;;;4117000;28;20445;-70
2022/11/30 02:35:11;;;;;;;8.63;3.77;;;5.10;99.90;;;;;;4117721;28;20452;-70
2022/11/30 02:37:14;;;;;;;7.23;4.80;;;5.00;99.90;;;;;;4117318;28;20422;-70
2022/11/30 02:39:15;;;;;;;6.77;4.40;;;5.10;99.90;;;;;;4117442;28;20441;-71
2022/11/30 02:41:16;;;;;;;5.90;3.57;;;5.20;99.90;;;;;;4118910;28;20429;-70
2022/11/30 02:43:21;;;;;;;8.30;4.27;;;5.20;99.90;;;;;;4118237;28;20426;-70
2022/11/30 02:46:08;;;;;;;6.67;3.70;;;5.30;99.90;;;;;;4117452;28;20222;-71
2022/11/30 02:48:13;;;;;;;6.93;3.90;;;5.30;99.90;;;;;;4135677;28;20434;-70
2022/11/30 02:50:24;;;;;;;6.93;4.20;;;5.00;99.90;;;;;;4117328;28;20529;-70
2022/11/30 02:52:27;;;;;;;7.20;3.87;;;5.00;99.90;;;;;;4133602;28;20413;-71
2022/11/30 02:54:27;;;;;;;7.00;4.37;;;5.00;99.90;;;;;;4116874;28;20437;-72
2022/11/30 02:56:28;;;;;;;7.43;4.27;;;4.90;99.90;;;;;;4117254;28;20485;-71
2022/11/30 02:58:30;;;;;;;7.90;4.40;;;4.90;99.90;;;;;;4118965;28;20190;-71
2022/11/30 03:00:31;;;;;;;6.97;4.20;;;5.10;99.90;;;;;;4117261;28;20445;-71
2022/11/30 03:02:32;;;;;;;6.37;4.30;;;5.10;99.90;;;;;;4117159;28;20839;-71
2022/11/30 03:04:32;;;;;;;8.60;4.17;;;5.10;99.90;;;;;;4117525;28;20482;-70
2022/11/30 03:06:33;;;;;;;8.27;5.00;;;5.10;99.90;;;;;;4118317;28;20866;-71
2022/11/30 03:08:34;;;;;;;5.10;3.23;;;5.20;99.90;;;;;;4117338;28;20190;-70
2022/11/30 03:10:34;;;;;;;7.13;4.13;;;5.10;99.90;;;;;;4118286;28;20647;-70
2022/11/30 03:12:35;;;;;;;7.07;4.27;;;5.10;99.90;;;;;;4117854;28;20906;-69
2022/11/30 03:14:36;;;;;;;6.57;4.20;;;4.90;99.90;;;;;;4118808;28;20278;-70
2022/11/30 03:16:37;;;;;;;8.13;4.30;;;4.90;99.90;;;;;;4117434;28;20211;-70
2022/11/30 03:18:39;;;;;;;7.43;4.70;;;4.90;99.90;;;;;;4118427;28;20234;-70
2022/11/30 03:20:43;;;;;;;6.70;3.33;;;4.80;99.90;;;;;;4114603;28;20430;-70
2022/11/30 03:22:44;;;;;;;7.03;3.90;;;4.80;99.90;;;;;;4114907;28;20501;-70
2022/11/30 03:24:45;;;;;;;6.63;4.50;;;4.80;99.90;;;;;;4115810;28;20933;-70
2022/11/30 03:26:45;;;;;;;9.97;5.53;;;4.90;99.90;;;;;;4115638;28;20179;-70
2022/11/30 03:28:46;;;;;;;7.13;4.50;;;4.80;99.90;;;;;;4116868;28;20186;-70
2022/11/30 03:30:50;;;;;;;7.10;4.87;;;4.80;99.90;;;;;;4109281;28;20344;-70
2022/11/30 03:32:51;;;;;;;8.93;5.10;;;4.70;99.90;;;;;;4125693;28;20719;-70
2022/11/30 03:34:52;;;;;;;6.97;4.30;;;4.80;99.90;;;;;;4115934;28;20441;-70
2022/11/30 03:36:53;;;;;;;7.53;4.70;;;4.90;99.90;;;;;;4115313;28;20814;-70
2022/11/30 03:38:54;;;;;;;7.50;4.77;;;5.10;99.90;;;;;;4114831;28;20748;-70
2022/11/30 03:41:04;;;;;;;10.17;6.00;;;5.20;99.90;;;;;;4115692;28;20418;-70
2022/11/30 03:43:04;;;;;;;9.20;4.80;;;5.20;99.90;;;;;;4115208;28;20175;-72
2022/11/30 03:45:06;;;;;;;10.87;6.07;;;5.20;99.90;;;;;;4115454;28;21117;-71
2022/11/30 03:47:06;;;;;;;12.63;6.40;;;5.30;99.90;;;;;;4115658;28;20186;-69
2022/11/30 03:49:07;;;;;;;17.07;7.90;;;5.10;99.90;;;;;;4113741;28;20429;-70
2022/11/30 03:51:09;;;;;;;18.17;7.90;;;5.00;99.90;;;;;;4115212;28;20194;-70
2022/11/30 03:53:10;;;;;;;15.50;7.90;;;5.10;99.90;;;;;;4107246;28;20215;-70
2022/11/30 03:55:11;;;;;;;20.47;7.40;;;5.20;99.90;;;;;;4099021;29;20455;-70
2022/11/30 03:57:11;;;;;;;25.80;9.40;;;5.20;99.90;;;;;;4104542;28;20205;-70
2022/11/30 03:59:12;;;;;;;19.40;7.83;;;5.20;99.90;;;;;;4129775;28;20198;-70
2022/11/30 04:01:16;;;;;;;15.47;7.77;;;5.30;99.90;;;;;;4115270;28;20233;-70
2022/11/30 04:03:17;;;;;;;14.37;7.00;;;5.30;99.90;;;;;;4114717;28;20235;-73
2022/11/30 04:05:21;;;;;;;16.37;8.07;;;5.20;99.90;;;;;;4113856;28;21022;-70
2022/11/30 04:07:21;;;;;;;12.50;6.13;;;5.10;99.90;;;;;;4115306;28;20214;-70
2022/11/30 04:09:22;;;;;;;10.40;6.27;;;5.10;99.90;;;;;;4113659;28;20438;-70
2022/11/30 04:11:23;;;;;;;10.63;5.77;;;5.00;99.90;;;;;;4113864;28;20200;-70
2022/11/30 04:13:25;;;;;;;9.77;5.90;;;4.90;99.90;;;;;;4114563;28;20427;-70
2022/11/30 04:15:25;;;;;;;14.10;5.90;;;4.90;99.90;;;;;;4113678;28;20211;-70
2022/11/30 04:17:26;;;;;;;10.67;6.10;;;4.90;99.90;;;;;;4114853;28;21054;-70
2022/11/30 04:19:27;;;;;;;11.77;6.17;;;5.10;99.90;;;;;;4114898;28;20572;-70
2022/11/30 04:21:27;;;;;;;11.53;6.37;;;5.10;99.90;;;;;;4113715;28;20252;-71
2022/11/30 04:23:32;;;;;;;13.07;6.60;;;4.90;99.90;;;;;;4113620;28;20220;-70
2022/11/30 04:25:33;;;;;;;8.40;4.97;;;5.00;99.90;;;;;;4114811;28;20222;-70
2022/11/30 04:27:33;;;;;;;10.63;5.80;;;4.90;99.90;;;;;;4115206;28;20437;-70
2022/11/30 04:29:34;;;;;;;11.00;6.40;;;5.00;99.90;;;;;;4115065;28;20190;-70
2022/11/30 04:31:34;;;;;;;10.07;5.63;;;5.10;99.90;;;;;;4113446;28;20621;-70
2022/11/30 04:33:35;;;;;;;10.43;6.37;;;4.90;99.90;;;;;;4114002;28;20563;-71
2022/11/30 04:35:47;;;;;;;10.50;6.33;;;5.00;99.90;;;;;;4114770;28;20299;-70
2022/11/30 04:37:48;;;;;;;8.20;5.33;;;4.80;99.90;;;;;;4113476;28;20853;-70
2022/11/30 04:39:48;;;;;;;8.83;5.07;;;4.70;99.90;;;;;;4114726;28;20430;-71
2022/11/30 04:41:49;;;;;;;9.13;5.27;;;4.70;99.90;;;;;;4113669;28;20306;-70
2022/11/30 04:43:49;;;;;;;8.67;4.97;;;4.80;99.90;;;;;;4112851;28;20198;-70
2022/11/30 04:45:50;;;;;;;8.03;5.30;;;4.70;99.90;;;;;;4114541;28;20211;-70
2022/11/30 04:47:51;;;;;;;8.50;5.80;;;4.70;99.90;;;;;;4114541;28;20274;-70
2022/11/30 04:49:52;;;;;;;9.43;6.50;;;4.70;99.90;;;;;;4114846;28;20183;-70
2022/11/30 04:51:52;;;;;;;7.90;4.90;;;4.60;99.90;;;;;;4113773;28;20183;-70
2022/11/30 04:53:53;;;;;;;8.00;5.03;;;4.70;99.90;;;;;;4112754;28;20179;-71
2022/11/30 04:55:54;;;;;;;8.30;5.00;;;4.90;99.90;;;;;;4114498;28;20285;-73
2022/11/30 04:57:55;;;;;;;8.83;4.87;;;5.10;99.90;;;;;;4114472;28;20187;-70
2022/11/30 04:59:55;;;;;;;10.20;5.07;;;5.00;99.90;;;;;;4113354;28;20186;-70
2022/11/30 05:01:56;;;;;;;8.07;4.97;;;4.90;99.90;;;;;;4112788;28;20187;-69
2022/11/30 05:03:58;;;;;;;7.53;4.40;;;4.90;99.90;;;;;;4113476;28;20217;-70
2022/11/30 05:05:59;;;;;;;11.57;5.77;;;4.90;99.90;;;;;;4114662;28;20203;-70
2022/11/30 05:08:00;;;;;;;9.87;5.13;;;5.00;99.90;;;;;;4112981;28;20593;-70
2022/11/30 05:10:01;;;;;;;9.00;5.03;;;5.10;99.90;;;;;;4114046;28;20183;-71
2022/11/30 05:12:02;;;;;;;9.40;4.93;;;5.00;99.90;;;;;;4114015;28;20191;-70
2022/11/30 05:14:03;;;;;;;8.37;5.50;;;5.10;99.90;;;;;;4111979;28;20194;-70
2022/11/30 05:16:04;;;;;;;8.97;5.03;;;5.00;99.90;;;;;;4128762;28;20202;-70
2022/11/30 05:18:04;;;;;;;6.23;4.20;;;5.10;99.90;;;;;;4114154;28;20954;-70
2022/11/30 05:20:06;;;;;;;9.63;5.40;;;5.10;99.90;;;;;;4114138;28;20434;-70
2022/11/30 05:22:06;;;;;;;8.27;5.03;;;5.00;99.90;;;;;;4113921;28;20226;-70
2022/11/30 05:24:08;;;;;;;6.03;4.33;;;5.10;99.90;;;;;;4113049;28;21085;-70
2022/11/30 05:26:08;;;;;;;6.80;4.37;;;4.90;99.90;;;;;;4112568;28;20234;-70
2022/11/30 05:28:09;;;;;;;9.37;5.03;;;4.90;99.90;;;;;;4112362;28;20429;-70
2022/11/30 05:30:11;;;;;;;8.17;5.30;;;4.90;99.90;;;;;;4112573;28;20648;-70
2022/11/30 05:32:11;;;;;;;8.30;4.70;;;5.00;99.90;;;;;;4112342;28;20696;-70
2022/11/30 05:34:12;;;;;;;12.13;6.40;;;5.00;99.90;;;;;;4112069;28;20437;-71
2022/11/30 05:36:13;;;;;;;12.07;6.63;;;5.10;99.90;;;;;;4113780;28;20230;-70
2022/11/30 05:38:13;;;;;;;9.90;5.53;;;5.00;99.90;;;;;;4112503;28;20183;-70
2022/11/30 05:40:14;;;;;;;9.20;5.17;;;4.80;99.90;;;;;;4113575;28;20202;-70
2022/11/30 05:42:15;;;;;;;34.43;22.03;;;4.80;99.90;;;;;;4111966;28;20190;-70
2022/11/30 05:44:16;;;;;;;7.47;4.27;;;4.60;99.90;;;;;;4113017;28;20262;-70
2022/11/30 05:46:16;;;;;;;8.93;5.63;;;4.40;99.90;;;;;;4112975;28;20215;-69
2022/11/30 05:48:17;;;;;;;7.07;3.87;;;4.40;99.90;;;;;;4113285;28;20198;-69
2022/11/30 05:50:18;;;;;;;7.77;5.17;;;4.40;99.90;;;;;;4115627;28;20186;-70
2022/11/30 05:52:19;;;;;;;7.00;4.97;;;4.40;99.90;;;;;;4112716;28;20824;-70
2022/11/30 05:54:19;;;;;;;9.30;4.97;;;4.60;99.90;;;;;;4113380;28;20489;-70
2022/11/30 05:56:21;;;;;;;7.77;5.33;;;4.60;99.90;;;;;;4113726;28;20206;-70
2022/11/30 05:58:21;;;;;;;6.40;4.30;;;4.60;99.90;;;;;;4112614;28;20182;-70
2022/11/30 06:00:22;;;;;;;7.80;4.70;;;4.70;99.90;;;;;;4100983;28;20569;-71
2022/11/30 06:02:23;;;;;;;7.73;5.47;;;4.70;99.90;;;;;;4097527;28;20191;-69
2022/11/30 06:04:24;;;;;;;8.60;5.53;;;4.80;99.90;;;;;;4097005;28;20784;-70
2022/11/30 06:06:24;;;;;;;9.43;5.53;;;4.90;99.90;;;;;;4097706;28;20207;-70
2022/11/30 06:08:26;;;;;;;8.97;5.50;;;4.90;99.90;;;;;;4097910;28;20281;-69
2022/11/30 06:10:26;;;;;;;8.47;4.60;;;4.90;99.90;;;;;;4097506;28;20270;-69
2022/11/30 06:12:27;;;;;;;8.97;4.83;;;4.80;99.90;;;;;;4097498;28;20502;-69
2022/11/30 06:14:28;;;;;;;7.07;5.00;;;4.70;99.90;;;;;;4096794;29;20191;-69
2022/11/30 06:16:28;;;;;;;10.37;5.10;;;4.80;99.90;;;;;;4097528;28;20207;-69
2022/11/30 06:18:29;;;;;;;8.53;5.00;;;4.80;99.90;;;;;;4097243;28;20235;-69
2022/11/30 06:20:30;;;;;;;9.50;5.90;;;4.70;99.90;;;;;;4098021;28;20191;-70
2022/11/30 06:22:31;;;;;;;9.30;5.27;;;4.70;99.90;;;;;;4112391;28;20667;-70
2022/11/30 06:24:31;;;;;;;9.10;4.90;;;4.70;99.90;;;;;;4096871;28;20230;-70
2022/11/30 06:26:32;;;;;;;9.70;6.30;;;4.70;99.90;;;;;;4097129;29;20203;-70
2022/11/30 06:28:33;;;;;;;11.03;5.70;;;4.80;99.90;;;;;;4097126;28;20207;-71
2022/11/30 06:30:34;;;;;;;11.60;6.47;;;4.80;99.90;;;;;;4097189;28;20270;-70
2022/11/30 06:32:35;;;;;;;10.80;6.20;;;4.90;99.90;;;;;;4111598;28;21272;-69
2022/11/30 06:34:35;;;;;;;14.87;7.80;;;4.80;99.90;;;;;;4097020;28;20246;-70
2022/11/30 06:36:36;;;;;;;15.07;8.00;;;4.70;99.90;;;;;;4097484;28;20210;-70
2022/11/30 06:38:37;;;;;;;15.30;7.90;;;4.60;99.90;;;;;;4097719;28;20179;-71
2022/11/30 06:40:38;;;;;;;15.30;8.63;;;4.70;99.90;;;;;;4097158;29;20187;-70
2022/11/30 06:42:39;;;;;;;13.20;6.80;;;4.80;99.90;;;;;;4096628;28;20215;-69
2022/11/30 06:44:40;;;;;;;11.77;7.13;;;4.90;99.90;;;;;;4096824;28;20860;-70
2022/11/30 06:46:40;;;;;;;12.87;7.47;;;4.80;99.90;;;;;;4096873;28;20251;-70
2022/11/30 06:48:41;;;;;;;14.50;7.67;;;4.60;99.90;;;;;;4097127;28;20203;-70
2022/11/30 06:50:42;;;;;;;10.77;6.07;;;4.60;99.90;;;;;;4111676;28;20183;-70
2022/11/30 06:52:42;;;;;;;9.13;6.20;;;4.70;99.90;;;;;;4096342;28;20573;-70
2022/11/30 06:54:43;;;;;;;12.40;6.50;;;4.70;99.90;;;;;;4097961;28;20536;-70
2022/11/30 06:56:43;;;;;;;11.43;6.50;;;4.60;99.90;;;;;;4100361;29;20854;-70
2022/11/30 06:58:44;;;;;;;10.47;6.17;;;4.60;99.90;;;;;;4100173;29;20191;-70
2022/11/30 07:00:45;;;;;;;10.73;6.17;;;4.60;99.90;;;;;;4100010;28;20187;-70
2022/11/30 07:02:46;;;;;;;10.77;6.23;;;4.60;99.90;;;;;;4099147;28;20290;-69
2022/11/30 07:04:46;;;;;;;11.10;6.03;;;4.70;99.90;;;;;;4099814;28;20222;-70
2022/11/30 07:06:47;;;;;;;11.17;6.03;;;4.60;99.90;;;;;;4099821;28;20184;-70
2022/11/30 07:08:48;;;;;;;13.33;6.93;;;4.70;99.90;;;;;;4114918;28;20180;-70
2022/11/30 07:10:49;;;;;;;12.30;7.57;;;4.70;99.90;;;;;;4099881;28;20183;-70
2022/11/30 07:12:50;;;;;;;13.77;6.93;;;4.80;99.90;;;;;;4114087;28;20436;-70
2022/11/30 07:14:54;;;;;;;14.67;7.80;;;4.70;99.90;;;;;;4099713;28;20211;-69
2022/11/30 07:16:54;;;;;;;14.73;6.70;;;4.80;99.90;;;;;;4113965;28;20214;-69
2022/11/30 07:18:56;;;;;;;9.07;5.77;;;4.80;99.90;;;;;;4099748;29;20770;-70
2022/11/30 07:20:59;;;;;;;11.30;6.27;;;4.80;99.90;;;;;;4098319;29;21041;-70
2022/11/30 07:27:38;;;;;;;12.93;7.77;;;4.70;99.90;;;;;;4131433;28;20417;-70
2022/11/30 07:29:39;;;;;;;9.67;6.20;;;4.70;99.90;;;;;;4131570;28;20914;-71
2022/11/30 07:31:39;;;;;;;11.90;6.80;;;4.80;99.90;;;;;;4131428;28;20179;-70
2022/11/30 07:33:40;;;;;;;10.53;7.00;;;4.80;99.90;;;;;;4130764;28;20178;-70
2022/11/30 07:35:41;;;;;;;13.77;8.43;;;4.80;99.90;;;;;;4131301;28;20202;-69
2022/11/30 07:37:41;;;;;;;12.60;7.27;;;4.90;99.90;;;;;;4131672;28;20186;-70
2022/11/30 07:39:42;;;;;;;11.03;6.73;;;5.00;99.90;;;;;;4131619;28;20266;-70
2022/11/30 07:41:43;;;;;;;15.07;7.93;;;4.90;99.90;;;;;;4125991;28;20697;-70
2022/11/30 07:43:44;;;;;;;12.60;7.57;;;4.90;99.90;;;;;;4114801;28;20187;-70
2022/11/30 07:45:52;;;;;;;14.10;8.13;;;5.00;99.90;;;;;;4114509;28;20450;-70
2022/11/30 07:47:53;;;;;;;11.63;7.60;;;4.90;99.90;;;;;;4130552;28;20201;-70
2022/11/30 07:49:54;;;;;;;14.13;8.20;;;4.90;99.90;;;;;;4115395;28;20418;-70
2022/11/30 07:51:54;;;;;;;10.77;7.03;;;4.90;99.90;;;;;;4114367;28;20433;-70
2022/11/30 07:53:56;;;;;;;11.37;7.80;;;4.90;99.90;;;;;;4113344;28;20695;-70
2022/11/30 07:56:13;;;;;;;10.13;6.70;;;4.80;99.90;;;;;;4113781;28;20202;-70
2022/11/30 07:58:13;;;;;;;12.13;6.67;;;4.90;99.90;;;;;;4129791;28;20445;-70
2022/11/30 08:00:14;;;;;;;10.80;6.30;;;4.60;99.90;;;;;;4115064;28;20426;-69
2022/11/30 08:02:15;;;;;;;9.17;5.93;;;4.60;99.90;;;;;;4114918;28;20198;-70
2022/11/30 08:04:17;;;;;;;12.87;7.67;;;4.80;99.90;;;;;;4114389;28;20504;-70
2022/11/30 08:06:27;;;;;;;12.07;6.80;;;4.90;99.90;;;;;;4112577;28;20528;-70
2022/11/30 08:08:32;;;;;;;12.30;7.07;;;5.00;99.90;;;;;;4098101;28;20176;-70
2022/11/30 08:10:33;;;;;;;12.67;7.03;;;5.00;99.90;;;;;;4098871;28;20416;-70
2022/11/30 08:12:34;;;;;;;10.60;6.57;;;5.20;99.90;;;;;;4104629;28;20884;-70
2022/11/30 08:14:35;;;;;;;12.70;8.00;;;5.20;99.90;;;;;;4114444;28;20195;-71
2022/11/30 08:16:37;;;;;;;12.97;7.63;;;5.10;99.90;;;;;;4097355;28;20216;-70
2022/11/30 08:18:39;;;;;;;9.90;6.57;;;5.20;99.90;;;;;;4114634;28;20431;-70
2022/11/30 08:20:40;;;;;;;12.10;7.27;;;5.30;99.90;;;;;;4113304;28;20863;-70
2022/11/30 08:22:41;;;;;;;9.30;6.37;;;5.30;99.90;;;;;;4114114;28;20430;-70
2022/11/30 08:24:41;;;;;;;10.27;7.03;;;5.20;99.90;;;;;;4114629;28;20222;-70
2022/11/30 08:26:42;;;;;;;10.77;7.13;;;5.20;99.90;;;;;;4111480;28;21132;-69
2022/11/30 08:28:45;;;;;;;12.13;7.43;;;5.30;99.90;;;;;;4097626;28;20191;-69
2022/11/30 08:30:46;;;;;;;12.23;6.80;;;5.30;99.90;;;;;;4108588;28;20314;-72
2022/11/30 08:32:47;;;;;;;13.37;8.13;;;5.30;99.90;;;;;;4109128;28;20493;-69
2022/11/30 08:34:48;;;;;;;13.90;7.80;;;5.40;99.90;;;;;;4127782;28;20433;-69
2022/11/30 08:36:50;;;;;;;10.37;7.07;;;5.50;99.90;;;;;;4112915;28;20179;-71
2022/11/30 08:38:51;;;;;;;12.33;7.33;;;5.60;99.90;;;;;;4112802;28;20218;-71
2022/11/30 08:40:56;;;;;;;12.90;6.77;;;5.30;99.90;;;;;;4112419;28;20958;-70
2022/11/30 08:42:58;;;;;;;11.50;7.37;;;5.30;99.90;;;;;;4111836;28;20198;-70
2022/11/30 08:44:58;;;;;;;11.00;6.73;;;5.30;99.90;;;;;;4113242;28;21004;-70
2022/11/30 08:46:59;;;;;;;11.10;7.03;;;5.30;99.90;;;;;;4110832;28;20429;-70
2022/11/30 08:49:00;;;;;;;10.40;6.57;;;5.40;99.90;;;;;;4112497;28;20186;-70
2022/11/30 08:51:04;;;;;;;12.23;6.70;;;5.40;99.90;;;;;;4113415;28;20183;-68
2022/11/30 08:53:05;;;;;;;10.33;6.43;;;5.30;99.90;;;;;;4111547;28;20553;-68
2022/11/30 08:55:06;;;;;;;9.53;6.17;;;5.40;99.90;;;;;;4112733;28;20457;-67
2022/11/30 08:57:07;;;;;;;9.93;5.97;;;5.40;99.90;;;;;;4113461;28;20692;-67
2022/11/30 08:59:07;;;;;;;12.60;7.60;;;5.50;99.90;;;;;;4113487;28;20426;-68
2022/11/30 09:01:21;;;;;;;10.63;6.47;;;5.40;99.90;;;;;;4112951;28;20182;-68
2022/11/30 09:03:22;;;;;;;10.63;6.67;;;5.50;99.90;;;;;;4111289;28;20206;-68
2022/11/30 09:05:23;;;;;;;10.80;6.00;;;5.50;99.90;;;;;;4113389;28;20529;-69
2022/11/30 09:07:23;;;;;;;9.77;6.33;;;5.50;99.90;;;;;;4113289;28;20283;-68
2022/11/30 09:09:24;;;;;;;10.63;7.03;;;5.60;99.90;;;;;;4113287;28;20872;-68
2022/11/30 09:11:31;;;;;;;13.33;7.60;;;5.80;99.90;;;;;;4111763;28;20192;-69
2022/11/30 09:13:32;;;;;;;8.13;5.43;;;5.70;99.90;;;;;;4110563;28;20569;-69
2022/11/30 09:15:33;;;;;;;11.80;6.20;;;5.60;99.90;;;;;;4112910;28;20465;-68
2022/11/30 09:17:33;;;;;;;11.30;7.07;;;5.50;99.90;;;;;;4112206;28;20246;-68
2022/11/30 09:19:34;;;;;;;9.97;7.00;;;5.50;99.90;;;;;;4112914;28;20234;-68
2022/11/30 09:21:35;;;;;;;11.33;7.20;;;5.40;99.90;;;;;;4113060;28;20664;-68
2022/11/30 09:23:36;;;;;;;11.03;6.17;;;5.30;99.90;;;;;;4111128;28;20588;-68
2022/11/30 09:25:37;;;;;;;10.30;6.20;;;5.40;99.90;;;;;;4112920;28;20734;-69
2022/11/30 09:27:38;;;;;;;12.30;6.93;;;5.50;99.90;;;;;;4112817;28;20429;-68
2022/11/30 09:29:38;;;;;;;11.23;6.43;;;5.50;99.90;;;;;;4112616;28;20183;-71
2022/11/30 09:31:39;;;;;;;12.60;6.97;;;5.60;99.90;;;;;;4112606;28;20311;-72
2022/11/30 09:33:41;;;;;;;9.00;6.03;;;5.60;99.90;;;;;;4111742;28;20191;-69
2022/11/30 09:35:41;;;;;;;14.37;7.10;;;5.60;99.90;;;;;;4112492;28;20619;-70
2022/11/30 09:37:42;;;;;;;12.73;7.27;;;5.50;99.90;;;;;;4112539;28;20437;-70
2022/11/30 09:39:43;;;;;;;13.03;7.63;;;5.60;99.90;;;;;;4111054;28;20334;-70
2022/11/30 09:42:12;;;;;;;10.47;7.20;;;5.60;99.90;;;;;;4112696;28;20217;-70
2022/11/30 09:44:40;;;;;;;10.57;6.37;;;5.60;99.90;;;;;;4113267;28;20251;-68
2022/11/30 09:47:03;;;;;;;13.77;7.20;;;5.60;99.90;;;;;;4112659;28;20520;-69
2022/11/30 09:49:17;;;;;;;11.87;6.73;;;5.50;99.90;;;;;;4112385;28;20456;-71
2022/11/30 09:51:26;;;;;;;11.30;7.37;;;5.40;99.90;;;;;;4111411;28;20505;-70
2022/11/30 09:53:43;;;;;;;12.60;6.67;;;5.40;99.90;;;;;;4126822;28;21041;-69
2022/11/30 09:55:44;;;;;;;11.97;6.83;;;5.30;99.90;;;;;;4110124;28;20457;-70
2022/11/30 09:57:51;;;;;;;13.77;7.63;;;5.20;99.90;;;;;;4111207;28;20429;-69
2022/11/30 10:00:03;;;;;;;13.97;8.20;;;5.30;99.90;;;;;;4111352;28;20187;-69
2022/11/30 10:02:16;;;;;;;13.13;6.80;;;5.30;99.90;;;;;;4111251;28;20489;-69
2022/11/30 10:04:27;;;;;;;12.97;7.43;;;5.40;99.90;;;;;;4109107;28;20481;-71
2022/11/30 10:07:13;;;;;;;12.77;7.47;;;5.40;99.90;;;;;;4110842;28;21265;-70
2022/11/30 10:09:58;;;;;;;11.73;7.40;;;5.30;99.90;;;;;;4112201;28;20423;-69
2022/11/30 10:12:09;;;;;;;12.63;7.73;;;5.30;99.90;;;;;;4107193;28;20430;-70
2022/11/30 10:14:22;;;;;;;14.50;7.33;;;5.10;99.90;;;;;;4111593;28;20434;-68
2022/11/30 10:16:30;;;;;;;13.33;8.50;;;5.20;99.90;;;;;;4112175;28;20805;-69
2022/11/30 10:19:04;;;;;;;14.13;8.97;;;5.30;99.90;;;;;;4110997;28;20434;-69
2022/11/30 10:21:35;;;;;;;18.13;8.67;;;5.30;99.90;;;;;;4126808;28;20958;-69
2022/11/30 10:24:06;;;;;;;14.60;8.47;;;5.30;99.90;;;;;;4107433;28;20440;-69
2022/11/30 10:26:52;;;;;;;18.13;9.37;;;5.10;99.90;;;;;;4126782;28;20873;-70
2022/11/30 10:28:57;;;;;;;17.10;8.63;;;5.10;99.90;;;;;;4111648;28;20810;-70
2022/11/30 10:31:00;;;;;;;13.80;8.40;;;5.20;99.90;;;;;;4111949;28;20517;-70
2022/11/30 10:33:31;;;;;;;16.80;8.80;;;5.20;99.90;;;;;;4109621;28;20437;-70
2022/11/30 10:35:52;;;;;;;18.13;9.07;;;5.10;99.90;;;;;;4113968;28;20849;-68
2022/11/30 10:37:53;;;;;;;17.63;8.67;;;5.00;99.90;;;;;;4114066;28;21076;-69
2022/11/30 10:40:15;;;;;;;17.17;8.13;;;5.10;99.90;;;;;;4113815;28;20425;-67
2022/11/30 10:42:25;;;;;;;13.20;7.70;;;5.10;99.90;;;;;;4113942;28;20539;-67
2022/11/30 10:44:33;;;;;;;12.60;7.60;;;5.30;99.90;;;;;;4114584;28;21050;-66
2022/11/30 10:46:38;;;;;;;12.37;6.90;;;5.10;99.90;;;;;;4113835;28;20504;-67
2022/11/30 10:49:00;;;;;;;14.77;7.63;;;5.30;99.90;;;;;;4114001;28;20485;-67
2022/11/30 10:51:03;;;;;;;12.63;7.10;;;5.80;99.90;;;;;;4114059;28;20426;-68
2022/11/30 10:53:04;;;;;;;10.47;6.90;;;6.00;99.90;;;;;;4113008;28;20842;-67